Time;durP1;ratioP1;P1;durP2;ratioP2;P2;SDS_P1;SDS_P2;PMS_P1;PMS_P2;Temp;Humidity;BMP_temperature;BMP_pressure;BME280_temperature;BME280_humidity;BME280_pressure;Samples;Min_cycle;Max_cycle;Signal;HPM_P1;HPM_P2
2021/05/16 06:01:12;;;;;;;;;;;;;;;14.19;73.09;99305.39;1724884;79;26566;-62
2021/05/16 06:03:40;;;;;;;17.77;12.88;;;;;;;14.31;72.63;99305.83;1706701;82;26031;-63
2021/05/16 06:06:06;;;;;;;19.48;14.20;;;;;;;14.37;72.60;99304.41;1709091;83;25791;-63
2021/05/16 06:08:33;;;;;;;16.25;13.53;;;;;;;14.48;72.74;99306.74;1717672;82;26792;-63
2021/05/16 06:10:59;;;;;;;16.23;13.25;;;;;;;14.65;73.04;99311.57;1745653;81;26049;-63
2021/05/16 06:13:26;;;;;;;18.30;13.20;;;;;;;14.72;72.09;99307.03;1807466;78;25792;-64
2021/05/16 06:15:52;;;;;;;16.55;12.88;;;;;;;14.78;71.59;99310.27;1784439;78;27138;-64
2021/05/16 06:18:19;;;;;;;17.90;14.23;;;;;;;14.77;71.30;99306.54;1790920;78;25747;-63
2021/05/16 06:20:45;;;;;;;14.85;13.25;;;;;;;14.80;71.10;99312.05;1815974;78;25778;-64
2021/05/16 06:23:13;;;;;;;16.37;13.35;;;;;;;14.87;71.46;99314.11;1809354;78;25658;-65
2021/05/16 06:25:39;;;;;;;17.02;13.70;;;;;;;14.94;71.14;99311.52;1808018;78;25667;-63
2021/05/16 06:28:07;;;;;;;15.38;13.30;;;;;;;15.00;71.06;99307.35;1810109;78;27471;-65
2021/05/16 06:30:34;;;;;;;15.65;12.75;;;;;;;15.11;71.06;99302.86;1806631;78;26054;-61
2021/05/16 06:33:00;;;;;;;18.23;13.68;;;;;;;15.26;71.04;99297.66;1770858;78;25554;-61
2021/05/16 06:35:27;;;;;;;16.17;13.20;;;;;;;15.45;71.30;99307.10;1797230;78;26014;-60
2021/05/16 06:37:53;;;;;;;15.03;11.93;;;;;;;15.58;70.16;99309.06;1803048;78;25558;-60
2021/05/16 06:40:20;;;;;;;16.37;11.78;;;;;;;15.60;69.58;99314.92;1806585;78;27475;-61
2021/05/16 06:42:46;;;;;;;15.93;12.00;;;;;;;15.65;69.19;99309.75;1799136;78;25477;-62
2021/05/16 06:45:13;;;;;;;15.93;12.13;;;;;;;15.74;69.08;99310.26;1764862;79;25494;-64
2021/05/16 06:47:40;;;;;;;14.28;11.93;;;;;;;15.83;68.67;99303.20;1771383;79;25669;-63
2021/05/16 06:50:10;;;;;;;15.03;12.75;;;;;;;15.87;68.55;99317.69;1772173;79;25528;-64
2021/05/16 06:52:37;;;;;;;14.43;11.53;;;;;;;16.04;68.55;99312.27;1771671;79;27985;-64
2021/05/16 06:55:05;;;;;;;14.60;12.20;;;;;;;16.37;68.68;99307.99;1773492;79;25658;-65
2021/05/16 06:57:32;;;;;;;12.43;11.03;;;;;;;16.67;67.95;99311.23;1774060;79;25897;-65
2021/05/16 06:59:58;;;;;;;16.00;12.35;;;;;;;16.85;67.15;99308.73;1777100;79;25510;-64
2021/05/16 07:02:24;;;;;;;14.80;11.22;;;;;;;16.88;66.32;99310.72;1781300;78;25598;-64
2021/05/16 07:04:50;;;;;;;16.12;12.55;;;;;;;16.93;66.02;99304.92;1797082;79;27501;-64
2021/05/16 07:07:17;;;;;;;15.08;10.68;;;;;;;17.11;66.23;99310.53;1725033;81;25481;-63
2021/05/16 07:09:43;;;;;;;12.80;11.15;;;;;;;17.47;65.52;99310.81;1778642;79;25540;-64
2021/05/16 07:12:11;;;;;;;17.00;11.25;;;;;;;17.74;65.06;99317.67;1774973;79;25581;-64
2021/05/16 07:14:37;;;;;;;13.20;11.35;;;;;;;17.82;63.50;99317.12;1768133;79;25476;-64
2021/05/16 07:17:03;;;;;;;12.23;10.25;;;;;;;17.98;63.67;99311.39;1722533;81;27714;-64
2021/05/16 07:19:29;;;;;;;13.95;11.05;;;;;;;18.44;64.97;99305.93;1781952;79;25542;-64
2021/05/16 07:21:56;;;;;;;15.60;10.00;;;;;;;18.91;64.17;99303.31;1802793;79;25483;-64
2021/05/16 07:24:22;;;;;;;13.53;10.08;;;;;;;19.22;63.18;99295.72;1765457;80;25499;-64
2021/05/16 07:26:49;;;;;;;9.70;8.63;;;;;;;19.62;62.08;99294.30;1770727;78;25188;-64
2021/05/16 07:29:15;;;;;;;10.53;9.43;;;;;;;19.86;61.15;99301.55;1794221;78;27524;-63
2021/05/16 07:31:41;;;;;;;10.80;8.83;;;;;;;20.06;58.98;99299.14;1807714;78;25946;-62
2021/05/16 07:34:07;;;;;;;11.93;9.23;;;;;;;20.10;59.06;99295.78;1790326;78;25693;-62
2021/05/16 07:36:34;;;;;;;11.85;8.40;;;;;;;20.12;58.73;99291.45;1803194;78;25531;-62
2021/05/16 07:39:00;;;;;;;9.60;7.75;;;;;;;20.30;58.17;99293.36;1811182;78;25490;-61
2021/05/16 07:41:27;;;;;;;14.33;7.53;;;;;;;20.44;56.25;99286.41;1813423;78;27521;-61
2021/05/16 07:43:53;;;;;;;8.60;7.40;;;;;;;20.54;56.34;99287.55;1801118;79;25913;-62
2021/05/16 07:46:20;;;;;;;10.10;7.25;;;;;;;20.68;56.37;99285.33;1797561;79;25550;-62
2021/05/16 07:48:46;;;;;;;6.67;6.08;;;;;;;20.89;56.83;99279.70;1798187;78;26001;-61
2021/05/16 07:51:12;;;;;;;7.92;6.15;;;;;;;21.30;56.72;99276.03;1812647;78;25485;-61
2021/05/16 07:53:39;;;;;;;7.42;6.22;;;;;;;21.66;55.13;99270.22;1806163;78;27562;-61
2021/05/16 07:56:05;;;;;;;8.48;5.15;;;;;;;21.80;53.89;99270.85;1805201;78;26584;-61
2021/05/16 07:58:32;;;;;;;7.47;5.22;;;;;;;21.90;53.65;99262.30;1808606;78;25550;-63
2021/05/16 08:00:58;;;;;;;5.03;4.10;;;;;;;22.24;53.65;99268.38;1809869;78;25595;-63
2021/05/16 08:03:24;;;;;;;5.67;4.03;;;;;;;22.35;51.00;99257.23;1813185;78;25506;-62
2021/05/16 08:05:52;;;;;;;4.10;3.70;;;;;;;22.42;51.27;99259.89;1824046;78;27597;-63
2021/05/16 08:08:19;;;;;;;6.80;4.87;;;;;;;22.69;50.86;99259.13;1769306;80;25889;-64
2021/05/16 08:10:45;;;;;;;6.62;4.17;;;;;;;23.06;50.78;99255.42;1764753;81;25419;-63
2021/05/16 08:13:12;;;;;;;5.70;4.20;;;;;;;23.35;50.60;99252.19;1763830;81;25574;-62
2021/05/16 08:15:39;;;;;;;4.40;4.00;;;;;;;23.35;48.76;99263.83;1796262;78;25386;-63
2021/05/16 08:18:05;;;;;;;5.17;3.85;;;;;;;22.91;48.29;99254.07;1740785;81;27449;-63
2021/05/16 08:20:33;;;;;;;7.05;3.72;;;;;;;22.66;48.26;99255.83;1773355;80;25479;-62
2021/05/16 08:22:59;;;;;;;6.70;3.47;;;;;;;22.30;48.25;99254.34;1750695;81;25482;-63
2021/05/16 08:25:26;;;;;;;3.27;2.98;;;;;;;22.08;48.71;99244.77;1754834;81;25535;-62
2021/05/16 08:27:52;;;;;;;2.77;2.50;;;;;;;22.14;48.87;99247.27;1784471;78;25472;-61
2021/05/16 08:30:21;;;;;;;3.55;2.65;;;;;;;22.38;48.97;99245.40;1772078;79;27434;-60
2021/05/16 08:32:48;;;;;;;2.40;1.87;;;;;;;22.75;48.28;99237.58;1769343;78;26206;-61
2021/05/16 08:35:15;;;;;;;2.42;2.08;;;;;;;23.18;45.63;99242.25;1783877;79;25585;-61
2021/05/16 08:37:41;;;;;;;2.72;2.10;;;;;;;23.15;45.61;99235.58;1779945;79;25463;-61
2021/05/16 08:40:10;;;;;;;2.92;2.62;;;;;;;22.87;44.75;99232.08;1768169;78;25564;-61
2021/05/16 08:42:36;;;;;;;3.50;3.20;;;;;;;22.42;44.86;99239.23;1771773;79;27497;-62
2021/05/16 08:45:10;;;;;;;4.92;3.58;;;;;;;22.09;46.03;99233.35;1774409;79;26028;-66
2021/05/16 08:47:34;;;;;;;3.70;2.60;;;;;;;21.89;46.46;99231.05;1747907;79;25480;-66
2021/05/16 08:50:00;;;;;;;2.70;2.22;;;;;;;21.87;47.09;99227.94;1798676;78;25548;-65
2021/05/16 08:52:27;;;;;;;3.45;3.10;;;;;;;21.96;46.51;99235.89;1789050;78;25534;-66
2021/05/16 08:54:53;;;;;;;3.10;2.42;;;;;;;21.93;47.52;99231.77;1783162;78;27604;-66
2021/05/16 08:57:20;;;;;;;8.45;2.50;;;;;;;21.97;46.60;99237.43;1795289;78;25602;-66
2021/05/16 09:00:08;;;;;;;2.50;2.30;;;;;;;22.08;46.02;99231.01;1769203;80;25557;-66
2021/05/16 09:02:47;;;;;;;4.47;1.90;;;;;;;22.00;45.43;99228.95;1774955;78;25622;-66
2021/05/16 09:05:26;;;;;;;2.67;2.12;;;;;;;21.68;45.63;99229.34;1725222;82;25530;-65
2021/05/16 09:08:15;;;;;;;2.90;2.30;;;;;;;21.35;45.52;99233.77;1728546;82;27440;-66
2021/05/16 09:10:44;;;;;;;2.12;1.92;;;;;;;21.12;45.38;99232.21;1697178;82;25530;-66
2021/05/16 09:13:15;;;;;;;;;;;;;;;20.99;46.08;99236.03;1728335;82;25574;-66
2021/05/16 09:15:42;;;;;;;2.05;1.90;;;;;;;20.93;45.73;99239.05;1726092;82;25602;-66
2021/05/16 09:18:08;;;;;;;2.25;1.85;;;;;;;20.78;45.76;99241.89;1723413;82;25578;-66
2021/05/16 09:20:35;;;;;;;2.27;2.10;;;;;;;20.60;45.39;99239.82;1724826;82;27577;-66
2021/05/16 09:23:02;;;;;;;1.98;1.85;;;;;;;20.42;46.31;99242.70;1729163;82;25711;-67
2021/05/16 09:25:31;;;;;;;2.77;2.33;;;;;;;20.35;46.75;99240.77;1724727;82;25571;-65
2021/05/16 09:28:12;;;;;;;3.72;2.30;;;;;;;20.40;47.14;99240.34;1722327;82;25579;-65
2021/05/16 09:30:41;;;;;;;2.33;2.12;;;;;;;20.37;47.25;99232.91;1726731;82;25501;-65
2021/05/16 09:33:13;;;;;;;5.50;2.08;;;;;;;20.36;47.35;99230.55;1704339;82;27470;-66
2021/05/16 09:35:44;;;;;;;2.05;1.87;;;;;;;20.31;47.33;99234.49;1701338;82;25715;-67
2021/05/16 09:38:21;;;;;;;2.08;1.80;;;;;;;20.22;47.09;99231.42;1724007;82;25537;-68
2021/05/16 09:40:56;;;;;;;2.95;1.98;;;;;;;20.14;47.34;99231.45;1725459;80;25642;-67
2021/05/16 09:43:27;;;;;;;5.55;2.55;;;;;;;20.18;47.88;99221.83;1780866;79;25484;-64
2021/05/16 09:46:01;;;;;;;2.45;2.25;;;;;;;20.17;47.64;99229.09;1776484;79;27538;-67
2021/05/16 09:48:44;;;;;;;3.70;2.22;;;;;;;20.11;47.78;99225.98;1774904;79;25868;-67
2021/05/16 09:51:24;;;;;;;2.52;2.33;;;;;;;19.94;47.46;99222.91;1753418;80;25579;-68
2021/05/16 09:54:07;;;;;;;2.58;2.37;;;;;;;19.75;47.82;99222.79;1714662;81;25506;-67
2021/05/16 09:56:43;;;;;;;3.12;1.70;;;;;;;19.67;48.16;99221.81;1757574;80;25517;-64
2021/05/16 09:59:12;;;;;;;2.47;1.92;;;;;;;19.70;48.38;99224.55;1763068;79;28267;-64
2021/05/16 10:01:39;;;;;;;2.08;1.90;;;;;;;19.73;48.58;99216.89;1739442;80;26291;-66
2021/05/16 10:04:08;;;;;;;1.95;1.75;;;;;;;19.90;48.76;99214.50;1740337;81;25555;-67
2021/05/16 10:06:35;;;;;;;3.80;2.37;;;;;;;20.06;48.44;99218.17;1741382;81;32390;-67
2021/05/16 10:09:03;;;;;;;4.72;2.80;;;;;;;20.24;48.79;99207.86;1787118;78;25674;-67
2021/05/16 10:11:31;;;;;;;4.35;2.67;;;;;;;20.42;49.34;99210.51;1776714;80;28072;-68
2021/05/16 10:14:08;;;;;;;3.20;2.72;;;;;;;20.66;49.19;99204.69;1775257;80;25541;-68
2021/05/16 10:16:42;;;;;;;2.67;2.37;;;;;;;20.88;49.42;99201.78;1778456;79;25493;-68
2021/05/16 10:19:14;;;;;;;2.87;2.60;;;;;;;21.72;49.20;99190.16;1771282;80;26121;-68
2021/05/16 10:21:40;;;;;;;2.52;2.33;;;;;;;22.46;47.84;99190.39;1742089;81;25604;-67
2021/05/16 10:24:13;;;;;;;2.60;2.40;;;;;;;22.78;47.06;99184.95;1751181;78;28049;-68
2021/05/16 10:26:41;;;;;;;4.42;2.47;;;;;;;22.74;45.78;99179.50;1795359;78;25516;-69
2021/05/16 10:29:15;;;;;;;2.67;2.10;;;;;;;22.89;46.44;99177.91;1778066;80;25546;-67
2021/05/16 10:31:53;;;;;;;2.42;2.22;;;;;;;23.54;45.85;99163.73;1759378;78;26782;-67
2021/05/16 10:34:36;;;;;;;3.20;1.60;;;;;;;24.11;45.27;99153.51;1729451;81;25498;-68
2021/05/16 10:37:04;;;;;;;3.02;1.45;;;;;;;24.43;43.04;99165.20;1772826;80;27794;-68
2021/05/16 10:39:48;;;;;;;3.33;1.82;;;;;;;24.18;40.74;99156.11;1774857;80;25490;-67
2021/05/16 10:42:34;;;;;;;1.72;1.62;;;;;;;23.67;40.67;99148.70;1773863;80;25984;-67
2021/05/16 10:45:20;;;;;;;1.92;1.80;;;;;;;23.25;41.43;99155.23;1775327;80;26160;-68
2021/05/16 10:47:50;;;;;;;2.47;1.85;;;;;;;22.84;40.67;99143.31;1784923;80;25485;-68
2021/05/16 10:50:25;;;;;;;4.08;1.85;;;;;;;22.53;41.18;99148.95;1748665;81;28217;-67
2021/05/16 10:53:05;;;;;;;3.62;1.55;;;;;;;22.44;42.14;99152.04;1735076;81;25467;-69
2021/05/16 10:55:39;;;;;;;1.75;1.60;;;;;;;22.50;42.00;99144.88;1742171;81;25521;-68
2021/05/16 10:58:07;;;;;;;3.90;1.85;;;;;;;22.35;42.03;99138.80;1741528;81;25562;-68
2021/05/16 11:00:40;;;;;;;1.75;1.52;;;;;;;22.33;42.23;99143.34;1743834;81;25519;-67
2021/05/16 11:03:10;;;;;;;2.37;2.08;;;;;;;22.15;42.31;99135.33;1789945;78;27467;-67
2021/05/16 11:05:50;;;;;;;2.00;1.90;;;;;;;22.07;42.51;99133.09;1765005;79;25554;-66
2021/05/16 11:08:28;;;;;;;2.33;2.12;;;;;;;22.03;42.75;99129.00;1815340;78;25532;-68
2021/05/16 11:10:55;;;;;;;2.25;2.05;;;;;;;21.86;43.15;99126.67;1774129;79;25974;-68
2021/05/16 11:13:29;;;;;;;2.08;1.87;;;;;;;21.81;43.12;99134.02;1783881;79;25465;-68
2021/05/16 11:16:06;;;;;;;2.37;2.00;;;;;;;21.73;43.22;99131.20;1803688;78;27465;-71
2021/05/16 11:18:33;;;;;;;2.90;2.22;;;;;;;21.61;43.34;99130.54;1799444;78;25434;-73
2021/05/16 11:21:04;;;;;;;4.80;2.30;;;;;;;21.48;43.92;99121.27;1814005;78;25526;-73
2021/05/16 11:23:34;;;;;;;2.20;2.00;;;;;;;21.39;43.95;99129.98;1804410;78;26185;-74
2021/05/16 11:26:11;;;;;;;2.15;1.90;;;;;;;21.35;43.94;99132.01;1812408;78;25506;-69
2021/05/16 11:28:45;;;;;;;3.22;2.42;;;;;;;21.31;44.37;99135.38;1802071;78;28022;-71
2021/05/16 11:31:24;;;;;;;2.22;1.90;;;;;;;21.38;44.55;99128.41;1800243;78;25773;-72
2021/05/16 11:33:50;;;;;;;2.30;2.10;;;;;;;21.46;44.91;99126.38;1810428;78;25505;-71
2021/05/16 11:36:20;;;;;;;2.50;2.20;;;;;;;21.53;44.45;99122.79;1809781;78;25807;-70
2021/05/16 11:38:51;;;;;;;1.92;1.72;;;;;;;21.64;44.67;99115.97;1811438;78;25566;-70
2021/05/16 11:41:39;;;;;;;2.70;1.60;;;;;;;21.69;44.43;99116.11;1802984;78;27463;-68
2021/05/16 11:44:08;;;;;;;2.20;1.90;;;;;;;21.77;44.28;99111.28;1805250;78;25576;-67
2021/05/16 11:46:45;;;;;;;;;;;;;;;22.09;43.64;99103.17;1807295;78;25601;-67
2021/05/16 11:49:15;;;;;;;2.90;1.60;;;;;;;22.11;43.49;99115.31;1807298;78;25611;-68
2021/05/16 11:51:42;;;;;;;1.70;1.60;;;;;;;21.99;42.42;99111.77;1801639;78;25470;-68
2021/05/16 11:54:11;;;;;;;2.10;1.90;;;;;;;21.84;42.64;99107.05;1807800;78;28545;-67
2021/05/16 11:56:42;;;;;;;2.80;2.00;;;;;;;21.69;42.92;99107.05;1798372;78;25470;-67
2021/05/16 11:59:10;;;;;;;2.25;2.00;;;;;;;21.57;43.24;99113.89;1777842;79;25496;-67
2021/05/16 12:01:43;;;;;;;4.28;2.08;;;;;;;21.36;43.45;99115.67;1808295;78;26369;-67
2021/05/16 12:06:52;;;;;;;1.95;1.80;;;;;;;21.09;44.29;99107.33;1811337;78;27565;-67
2021/05/16 12:09:25;;;;;;;2.37;1.70;;;;;;;21.07;44.55;99108.34;1788049;78;25551;-67
2021/05/16 12:11:54;;;;;;;3.10;2.08;;;;;;;21.06;44.86;99100.70;1782922;78;25574;-67
2021/05/16 12:14:26;;;;;;;2.40;1.87;;;;;;;21.16;45.03;99097.62;1803721;78;25981;-67
2021/05/16 12:16:55;;;;;;;2.90;2.17;;;;;;;21.25;44.83;99099.31;1793481;79;25519;-68
2021/05/16 12:19:30;;;;;;;2.17;1.98;;;;;;;21.21;44.39;99107.41;1764999;79;28105;-67
2021/05/16 12:22:00;;;;;;;1.85;1.75;;;;;;;21.08;44.64;99096.94;1790010;79;25461;-67
2021/05/16 12:24:31;;;;;;;1.98;1.87;;;;;;;21.00;44.77;99107.05;1746463;81;25941;-66
2021/05/16 12:26:58;;;;;;;2.10;2.00;;;;;;;20.88;44.65;99104.22;1778176;79;26099;-76
2021/05/16 12:29:26;;;;;;;2.30;2.12;;;;;;;20.69;45.10;99106.95;1753854;79;25542;-70
2021/05/16 12:31:54;;;;;;;3.67;2.62;;;;;;;20.57;46.20;99123.87;1799774;79;27644;-64
2021/05/16 12:34:26;;;;;;;7.40;3.00;;;;;;;20.17;50.63;99170.07;1735261;81;25618;-66
2021/05/16 12:44:26;;;;;;;5.30;2.72;;;;;;;16.60;60.73;99198.09;1785446;79;25490;-61
2021/05/16 12:46:55;;;;;;;6.58;2.70;;;;;;;15.64;62.99;99218.22;1742768;81;27514;-61
2021/05/16 12:49:28;;;;;;;5.15;2.58;;;;;;;15.21;64.26;99219.75;1762941;81;25578;-61
2021/05/16 12:51:58;;;;;;;2.60;2.40;;;;;;;14.83;67.51;99229.66;1747973;81;25488;-61
2021/05/16 12:54:35;;;;;;;4.35;2.10;;;;;;;14.52;66.12;99225.99;1786504;79;26079;-61
2021/05/16 12:57:10;;;;;;;4.72;2.35;;;;;;;14.28;66.76;99221.64;1789816;79;25490;-61
2021/05/16 12:59:36;;;;;;;6.75;2.77;;;;;;;14.04;69.13;99213.22;1748639;81;28134;-61
2021/05/16 13:02:15;;;;;;;4.35;2.40;;;;;;;13.90;69.06;99203.43;1784828;79;26159;-61
2021/05/16 13:04:54;;;;;;;5.85;2.72;;;;;;;13.79;70.22;99218.95;1745139;82;25516;-61
2021/05/16 13:07:51;;;;;;;4.25;2.70;;;;;;;13.66;71.08;99222.93;1752670;81;26109;-61
2021/05/16 13:10:38;;;;;;;5.17;3.60;;;;;;;13.57;71.06;99213.63;1786438;78;25458;-61
2021/05/16 13:13:19;;;;;;;3.30;2.75;;;;;;;13.52;71.75;99217.98;1757132;81;27451;-63
2021/05/16 13:15:48;;;;;;;5.65;2.77;;;;;;;13.53;72.51;99216.82;1756029;81;25866;-62
2021/05/16 13:18:26;;;;;;;6.83;2.62;;;;;;;13.60;72.82;99212.92;1783279;78;25476;-62
2021/05/16 13:20:55;;;;;;;4.33;3.30;;;;;;;13.74;73.51;99219.78;1789546;78;26454;-62
2021/05/16 13:23:29;;;;;;;4.17;2.83;;;;;;;13.91;73.74;99213.95;1771470;80;25460;-62
2021/05/16 13:25:57;;;;;;;3.80;2.27;;;;;;;14.06;74.35;99206.84;1761336;80;28122;-61
2021/05/16 13:28:28;;;;;;;3.95;2.25;;;;;;;14.22;74.87;99207.33;1728487;81;26101;-60
2021/05/16 13:31:01;;;;;;;5.00;2.70;;;;;;;14.32;74.45;99209.46;1792133;78;25527;-63
2021/05/16 13:33:44;;;;;;;3.62;2.15;;;;;;;14.45;74.78;99208.16;1732732;81;26260;-62
2021/05/16 13:36:12;;;;;;;3.83;2.12;;;;;;;14.53;74.36;99214.52;1798681;78;25632;-62
2021/05/16 13:38:41;;;;;;;2.95;1.90;;;;;;;14.56;74.24;99207.00;1754636;80;27515;-62
2021/05/16 13:41:13;;;;;;;7.60;2.63;;;;;;;14.72;74.84;99213.71;1784489;78;25954;-61
2021/05/16 13:43:38;;;;;;;2.02;1.82;;;;;;;14.72;74.84;99213.71;1773201;80;25681;-61
2021/05/16 13:46:05;;;;;;;4.22;2.10;;;;;;;14.74;74.79;99203.24;1772535;79;25597;-61
2021/05/16 13:48:32;;;;;;;4.30;2.52;;;;;;;14.84;75.07;99198.55;1772493;80;25529;-61
2021/05/16 13:51:02;;;;;;;6.00;4.92;;;;;;;14.94;74.78;99191.13;1774873;80;28131;-61
2021/05/16 13:53:28;;;;;;;14.18;10.23;;;;;;;15.12;76.25;99190.64;1753321;78;25734;-61
2021/05/16 13:56:00;;;;;;;4.35;2.33;;;;;;;15.48;78.51;99187.84;1755156;78;25687;-61
2021/05/16 13:58:28;;;;;;;2.10;1.90;;;;;;;15.58;75.87;99192.42;1774002;78;25503;-61
2021/05/16 14:00:54;;;;;;;3.75;3.42;;;;;;;15.74;76.20;99186.80;1782988;78;25485;-62
2021/05/16 14:03:21;;;;;;;2.70;1.50;;;;;;;15.82;76.00;99187.13;1773505;78;27520;-61
2021/05/16 14:05:51;;;;;;;3.08;2.42;;;;;;;15.95;75.47;99172.66;1764841;80;25576;-61
2021/05/16 14:08:19;;;;;;;4.30;1.85;;;;;;;16.09;76.34;99176.13;1759286;80;25565;-61
2021/05/16 14:10:45;;;;;;;1.70;1.40;;;;;;;16.21;75.97;99176.66;1758116;80;25903;-62
2021/05/16 14:13:12;;;;;;;5.65;2.60;;;;;;;16.34;75.04;99175.80;1766843;79;25585;-62
2021/05/16 14:15:38;;;;;;;2.42;2.20;;;;;;;16.48;75.27;99173.81;1767281;79;28194;-62
2021/05/16 14:18:05;;;;;;;2.45;1.55;;;;;;;16.67;76.49;99175.54;1798863;79;25865;-62
2021/05/16 14:20:31;;;;;;;2.60;1.50;;;;;;;16.70;72.90;99172.63;1809430;78;25574;-62
2021/05/16 14:22:57;;;;;;;1.87;1.52;;;;;;;16.64;72.17;99168.69;1794569;78;25892;-63
2021/05/16 14:25:24;;;;;;;3.05;2.08;;;;;;;16.65;72.79;99171.02;1795863;78;25574;-62
2021/05/16 14:27:50;;;;;;;1.60;1.45;;;;;;;16.64;73.28;99172.78;1816737;78;27530;-62
2021/05/16 14:30:18;;;;;;;3.95;1.90;;;;;;;16.59;72.75;99173.91;1795060;78;25567;-61
2021/05/16 14:32:46;;;;;;;2.30;1.92;;;;;;;16.56;73.19;99171.92;1805248;78;25771;-63
2021/05/16 14:35:13;;;;;;;2.58;1.77;;;;;;;16.55;73.24;99164.32;1803352;78;26138;-64
2021/05/16 14:37:41;;;;;;;2.20;1.98;;;;;;;16.58;73.78;99166.30;1806544;78;25494;-63
2021/05/16 14:40:08;;;;;;;2.83;1.60;;;;;;;16.57;73.47;99168.05;1781666;79;27565;-63
2021/05/16 14:42:35;;;;;;;2.95;2.00;;;;;;;16.54;73.63;99166.06;1750958;80;25499;-65
2021/05/16 14:45:01;;;;;;;1.90;1.70;;;;;;;16.45;73.37;99169.10;1797899;78;25898;-64
2021/05/16 14:47:28;;;;;;;3.17;2.17;;;;;;;16.37;73.32;99175.06;1805418;78;25673;-64
2021/05/16 14:49:54;;;;;;;2.35;1.90;;;;;;;16.31;73.47;99171.67;1799542;79;25543;-65
2021/05/16 14:52:21;;;;;;;2.02;1.75;;;;;;;16.30;73.84;99170.13;1803792;78;27637;-64
2021/05/16 14:54:47;;;;;;;3.17;2.37;;;;;;;16.27;73.93;99175.73;1805053;78;25557;-63
2021/05/16 14:57:14;;;;;;;2.22;2.00;;;;;;;16.23;73.62;99177.66;1805113;78;25625;-65
2021/05/16 14:59:40;;;;;;;2.33;2.00;;;;;;;16.20;73.79;99169.63;1804290;78;25569;-64
2021/05/16 15:02:07;;;;;;;3.87;2.37;;;;;;;16.20;74.28;99174.30;1775782;79;25497;-64
2021/05/16 15:04:34;;;;;;;2.35;2.00;;;;;;;16.26;75.28;99163.27;1795906;79;27547;-63
2021/05/16 15:07:01;;;;;;;3.62;2.45;;;;;;;16.24;74.43;99167.73;1787386;79;25601;-64
2021/05/16 15:09:28;;;;;;;3.20;2.20;;;;;;;16.25;74.75;99167.14;1759660;81;25513;-64
2021/05/16 15:11:55;;;;;;;2.45;2.25;;;;;;;16.28;74.94;99166.97;1790199;79;26398;-64
2021/05/16 15:14:21;;;;;;;4.35;2.10;;;;;;;16.30;74.75;99161.35;1783975;79;25478;-64
2021/05/16 15:16:48;;;;;;;3.30;2.47;;;;;;;16.32;74.55;99163.12;1787267;79;27589;-63
2021/05/16 15:19:14;;;;;;;2.80;2.08;;;;;;;16.35;74.52;99161.59;1750211;79;25565;-64
2021/05/16 15:21:41;;;;;;;3.42;2.22;;;;;;;16.30;74.37;99157.84;1737059;81;25580;-64
2021/05/16 15:24:10;;;;;;;2.67;2.10;;;;;;;16.26;74.30;99156.45;1735793;81;26074;-64
2021/05/16 15:26:37;;;;;;;3.80;2.08;;;;;;;16.25;74.48;99152.92;1738971;81;25529;-65
2021/05/16 15:29:04;;;;;;;2.90;2.12;;;;;;;16.23;73.88;99154.47;1719891;82;27345;-65
2021/05/16 15:31:30;;;;;;;3.12;2.25;;;;;;;16.21;74.22;99157.56;1711475;81;25766;-63
2021/05/16 15:33:57;;;;;;;3.83;1.95;;;;;;;16.18;74.36;99153.44;1738952;81;25623;-64
2021/05/16 15:36:24;;;;;;;3.37;1.98;;;;;;;16.14;73.89;99156.70;1711663;82;25993;-64
2021/05/16 15:38:50;;;;;;;2.33;2.10;;;;;;;16.11;74.39;99149.28;1754524;81;25594;-64
2021/05/16 15:41:17;;;;;;;2.27;2.00;;;;;;;16.02;74.15;99146.27;1744696;81;27335;-65
2021/05/16 15:43:44;;;;;;;3.02;1.87;;;;;;;16.03;74.11;99147.82;1707230;81;25617;-66
2021/05/16 15:46:11;;;;;;;2.42;1.90;;;;;;;16.03;74.46;99147.05;1744145;81;25642;-64
2021/05/16 15:48:38;;;;;;;2.27;2.02;;;;;;;16.02;74.77;99146.83;1744570;81;25565;-65
2021/05/16 15:51:05;;;;;;;1.80;1.70;;;;;;;15.98;74.05;99144.06;1734960;81;25741;-65
2021/05/16 15:53:33;;;;;;;1.80;1.70;;;;;;;15.96;74.07;99142.30;1745885;81;27328;-65
2021/05/16 15:56:00;;;;;;;2.25;2.02;;;;;;;15.94;74.29;99142.48;1735390;81;25622;-65
2021/05/16 15:58:26;;;;;;;2.83;2.12;;;;;;;15.94;74.43;99141.11;1719895;81;25556;-65
2021/05/16 16:00:53;;;;;;;2.90;2.05;;;;;;;15.92;74.27;99131.14;1738783;81;25555;-65
2021/05/16 16:03:25;;;;;;;2.77;1.77;;;;;;;15.91;74.28;99136.41;1729755;81;25902;-65
2021/05/16 16:05:49;;;;;;;3.33;1.90;;;;;;;15.93;74.46;99134.86;1720839;82;28494;-65
2021/05/16 16:08:15;;;;;;;1.85;1.67;;;;;;;15.92;74.38;99130.58;1724197;82;25908;-66
2021/05/16 16:10:42;;;;;;;2.40;2.20;;;;;;;15.91;74.60;99125.49;1725671;81;25692;-64
2021/05/16 16:13:09;;;;;;;3.50;2.10;;;;;;;15.92;74.45;99128.41;1696781;83;25633;-66
2021/05/16 16:15:36;;;;;;;4.28;2.40;;;;;;;15.90;74.98;99124.69;1720518;83;25621;-66
2021/05/16 16:18:03;;;;;;;2.35;2.15;;;;;;;15.89;74.77;99119.63;1725059;82;27402;-66
2021/05/16 16:20:29;;;;;;;2.40;2.20;;;;;;;15.89;74.55;99116.32;1720624;83;25524;-66
2021/05/16 16:22:56;;;;;;;3.92;2.70;;;;;;;15.91;75.14;99118.68;1724448;83;25584;-66
2021/05/16 16:25:23;;;;;;;2.50;2.10;;;;;;;15.91;75.01;99123.55;1722407;82;25497;-65
2021/05/16 16:27:51;;;;;;;4.37;2.60;;;;;;;15.91;75.07;99123.55;1723418;83;25521;-66
2021/05/16 16:30:18;;;;;;;2.77;2.30;;;;;;;15.91;75.32;99119.45;1718523;82;27560;-64
2021/05/16 16:32:45;;;;;;;2.45;2.25;;;;;;;15.93;75.46;99129.41;1721215;83;25534;-64
2021/05/16 16:35:12;;;;;;;3.95;2.80;;;;;;;15.93;75.31;99125.90;1724485;82;25540;-66
2021/05/16 16:37:39;;;;;;;4.40;2.20;;;;;;;15.89;75.26;99128.59;1717728;82;25830;-65
2021/05/16 16:40:07;;;;;;;2.83;2.50;;;;;;;15.90;75.05;99123.91;1723162;83;25607;-68
2021/05/16 16:42:34;;;;;;;2.70;2.42;;;;;;;15.86;74.94;99123.87;1720415;83;27407;-64
2021/05/16 16:45:00;;;;;;;7.22;2.75;;;;;;;15.86;75.32;99122.52;1694633;83;25850;-65
2021/05/16 16:55:15;;;;;;;3.22;2.77;;;;;;;15.67;75.96;99139.80;1763195;80;25634;-67
2021/05/16 16:57:43;;;;;;;;;;;;;;;15.48;75.75;99138.02;1723994;82;27363;-67
2021/05/16 17:00:11;;;;;;;5.33;3.15;;;;;;;15.38;75.97;99133.98;1711278;82;25526;-66
2021/05/16 17:02:37;;;;;;;5.08;4.08;;;;;;;15.29;76.35;99126.67;1724250;82;25534;-66
2021/05/16 17:05:05;;;;;;;3.60;3.30;;;;;;;15.21;76.44;99132.59;1705362;81;25989;-68
2021/05/16 17:07:32;;;;;;;3.87;3.45;;;;;;;15.11;77.14;99139.45;1772600;79;25542;-65
2021/05/16 17:09:58;;;;;;;4.83;3.45;;;;;;;14.98;77.08;99137.31;1773101;80;28116;-66
2021/05/16 17:12:26;;;;;;;4.97;3.80;;;;;;;14.87;77.45;99137.94;1755847;81;25922;-66
2021/05/16 17:14:59;;;;;;;5.65;3.67;;;;;;;14.81;77.63;99131.80;1757413;81;25526;-64
2021/05/16 17:17:28;;;;;;;5.12;3.80;;;;;;;14.77;77.48;99134.47;1743933;81;25843;-66
2021/05/16 17:19:55;;;;;;;6.15;4.55;;;;;;;14.74;77.78;99134.64;1755128;80;26363;-66
2021/05/16 17:22:22;;;;;;;4.90;3.95;;;;;;;14.69;77.89;99128.70;1728437;82;27355;-65
2021/05/16 17:24:49;;;;;;;4.83;3.80;;;;;;;14.65;77.83;99131.95;1777015;80;25689;-68
2021/05/16 17:27:16;;;;;;;8.15;4.35;;;;;;;14.59;77.74;99128.73;1738997;81;25483;-67
2021/05/16 17:29:43;;;;;;;4.97;3.75;;;;;;;14.58;78.06;99131.23;1760061;80;26148;-67
2021/05/16 17:32:09;;;;;;;4.83;4.42;;;;;;;14.55;77.94;99135.45;1769745;80;25589;-68
2021/05/16 17:34:36;;;;;;;6.65;5.08;;;;;;;14.54;78.07;99140.70;1773621;80;27917;-67
2021/05/16 17:37:03;;;;;;;7.90;4.50;;;;;;;14.55;78.30;99139.53;1756972;80;25578;-64
2021/05/16 17:39:30;;;;;;;6.05;4.70;;;;;;;14.54;78.31;99143.42;1750031;80;25593;-64
2021/05/16 17:41:56;;;;;;;5.40;4.90;;;;;;;14.53;78.59;99143.20;1747438;81;25531;-65
2021/05/16 17:44:24;;;;;;;5.55;4.92;;;;;;;14.52;78.55;99141.64;1755921;81;25638;-64
2021/05/16 17:46:52;;;;;;;5.40;4.90;;;;;;;14.51;78.60;99141.42;1757994;81;27349;-64
2021/05/16 17:49:19;;;;;;;5.45;4.95;;;;;;;14.51;78.65;99144.73;1734522;81;25502;-66
2021/05/16 17:51:53;;;;;;;8.98;5.60;;;;;;;14.49;78.72;99148.36;1754244;80;25675;-65
2021/05/16 17:54:22;;;;;;;6.90;5.78;;;;;;;14.45;78.91;99149.66;1776880;80;25521;-66
2021/05/16 17:56:50;;;;;;;6.20;5.08;;;;;;;14.44;79.09;99154.11;1774249;80;25522;-64
2021/05/16 17:59:17;;;;;;;7.40;5.28;;;;;;;14.44;79.33;99147.30;1732611;81;27306;-66